Weather at Teal Farm Airport

Public forecast

Using degrees Fahrenheit for public forecast. Weather courtesy of forecast.io.

Closest aviation weather report (METAR) to Teal Farm Airport

Closest report is Burlington International Airport, 14.7 nm (27.2 km) NW.

2024/07/25 08:54 (retrieved 50 minutes ago)

KBTV 250854Z AUTO 20008KT 10SM FEW047 BKN075 OVC120 22/19 A2996 RMK AO2 RAB05E40 SLP144 P0001 60001 T02170194 55001

Closest aviation forecast (TAF) to Teal Farm Airport

Closest forecast is Burlington International Airport, 14.7 nm (27.2 km) NW.

2024/07/25 06:33 (retrieved 3 hours ago)

TAF KBTV 250530Z 2506/2606 18008KT P6SM VCSH BKN035 FM251100 20008KT P6SM SCT035 FM251500 24008KT P6SM SCT050 FM252100 29011G17KT P6SM SCT050 FM260100 29007KT P6SM BKN030